Thyella — SV9685 — position and weather

sailwx.info

Track history (hours):
 
Tides and Currents Weather Stations Pressure Air Temp Water Temp Dewpoint Dewpoint Depression Visibility Wind Speed Wind Dir Waves Ship Positions

Thyella

Last reported at 2017-Nov-28 22:08 UTC. Time now 2017-Dec-11 14:54 UTC.
Position N 40°50' E 024°20'.
Warning: this ship's position is 12 days out of date.

Length 19 m; draft 2.8 m.

Type: Fishing. MMSI: 237998000.

Date/timePositionNaut miles runAvg speedWind from/ knotsBaromVisibWave heightAir tempDewpointWater temp
2017-Nov-28 22:08N 40°50' E 024°20'1 8.8
2017-Nov-28 22:00N 40°49' E 024°21'1 1.5
2017-Nov-28 21:30N 40°48' E 024°21'0 0.3
2017-Nov-28 21:00N 40°48' E 024°21'0 0.2
2017-Nov-28 20:30N 40°48' E 024°21'0 0.1
2017-Nov-28 20:00N 40°48' E 024°21'1 1.0
2017-Nov-28 19:30N 40°48' E 024°21'0 0.8
2017-Nov-28 19:00N 40°48' E 024°21'0 0.5
2017-Nov-28 18:30N 40°48' E 024°21'0 0.6
2017-Nov-28 18:00N 40°48' E 024°21'0 0.6
2017-Nov-28 17:30N 40°48' E 024°21'0 0.5
2017-Nov-28 17:00N 40°48' E 024°21'0 0.2
2017-Nov-28 16:30N 40°48' E 024°21'0 0.0
2017-Nov-28 16:00N 40°48' E 024°21'1 1.3
2017-Nov-28 15:00N 40°48' E 024°22'3 6.2
2017-Nov-28 14:30N 40°50' E 024°20'0 0.0
2017-Nov-26 22:13N 40°50' E 024°20'2 9.4
2017-Nov-26 22:01N 40°49' E 024°22'3 5.2
2017-Nov-26 21:30N 40°47' E 024°20'0 0.3
2017-Nov-26 21:00N 40°47' E 024°20'0 0.5
2017-Nov-26 20:31N 40°48' E 024°20'0 0.3
2017-Nov-26 20:00N 40°47' E 024°20'0 0.5
2017-Nov-26 19:31N 40°47' E 024°20'0 0.8
2017-Nov-26 19:00N 40°47' E 024°19'0 0.3
2017-Nov-26 18:30N 40°47' E 024°19'0 0.4
2017-Nov-26 18:01N 40°47' E 024°20'0 0.9
2017-Nov-26 17:31N 40°47' E 024°20'1 1.0
2017-Nov-26 17:00N 40°47' E 024°21'0 0.2
2017-Nov-26 16:31N 40°47' E 024°21'1 2.6
2017-Nov-26 16:01N 40°46' E 024°21'1 2.8
2017-Nov-26 15:31N 40°46' E 024°23'3 5.4
2017-Nov-26 15:00N 40°48' E 024°23'3 6.6
2017-Nov-26 14:31N 40°50' E 024°19'1 0.0
2017-Nov-24 21:32N 40°51' E 024°19'0 0.0
2017-Nov-24 21:30N 40°51' E 024°19'0 0.1
2017-Nov-24 21:00N 40°51' E 024°19'1 2.6
2017-Nov-24 20:30N 40°50' E 024°20'5 9.1
2017-Nov-24 20:00N 40°46' E 024°22'1 1.5
2017-Nov-24 19:30N 40°45' E 024°22'0 0.2
2017-Nov-24 19:00N 40°45' E 024°22'0 0.2
2017-Nov-24 18:30N 40°45' E 024°22'0 0.8
2017-Nov-24 18:00N 40°45' E 024°23'0 0.2
2017-Nov-24 17:30N 40°45' E 024°23'6 0.3
2017-Nov-23 21:09N 40°50' E 024°19'1 9.5
2017-Nov-23 21:00N 40°50' E 024°21'4 8.3
2017-Nov-23 20:30N 40°46' E 024°24'0 0.2
2017-Nov-23 20:00N 40°46' E 024°24'0 0.4
2017-Nov-23 19:30N 40°46' E 024°24'0 0.2
2017-Nov-23 19:00N 40°47' E 024°24'0 0.3
2017-Nov-23 18:30N 40°46' E 024°24'0 0.4
2017-Nov-23 18:00N 40°46' E 024°24'0 0.3
2017-Nov-23 17:30N 40°46' E 024°24'0 0.5
2017-Nov-23 17:00N 40°46' E 024°25'0 0.6
2017-Nov-23 16:30N 40°46' E 024°24'0 0.3
2017-Nov-23 16:00N 40°46' E 024°24'1 2.4
2017-Nov-23 15:30N 40°46' E 024°23'1 2.4
2017-Nov-23 15:00N 40°47' E 024°21'5 0.2
2017-Nov-22 19:05N 40°51' E 024°19'  
2017-Nov-19 22:23N 40°51' E 024°19'0 0.0
2017-Nov-19 22:00N 40°51' E 024°19'2 4.1
2017-Nov-19 21:31N 40°50' E 024°21'3 6.6
2017-Nov-19 21:01N 40°48' E 024°24'0 0.4
2017-Nov-19 20:30N 40°48' E 024°24'0 0.1
2017-Nov-19 20:01N 40°48' E 024°24'0 0.2
2017-Nov-19 19:30N 40°48' E 024°24'0 0.2
2017-Nov-19 19:01N 40°48' E 024°24'1 2.0
2017-Nov-19 18:31N 40°48' E 024°23'2 3.1
2017-Nov-19 18:01N 40°46' E 024°22'0 0.1
2017-Nov-19 17:31N 40°46' E 024°21'0 0.2
2017-Nov-19 17:00N 40°46' E 024°22'1 2.4
2017-Nov-19 16:31N 40°46' E 024°23'1 2.6
2017-Nov-19 16:01N 40°46' E 024°25'1 1.6
2017-Nov-19 15:31N 40°46' E 024°26'4 8.0
2017-Nov-19 15:01N 40°49' E 024°22'  
Track history (hours):
 
Tides and Currents Weather Stations Pressure Air Temp Water Temp Dewpoint Dewpoint Depression Visibility Wind Speed Wind Dir Waves Ship Positions

Thyella

Last reported at 2017-Nov-28 22:08 UTC. Time now 2017-Dec-11 14:54 UTC.
Position N 40°50' E 024°20'.
Warning: this ship's position is 12 days out of date.

Length 19 m; draft 2.8 m.

Type: Fishing. MMSI: 237998000.

Date/timePositionNaut miles runAvg speedWind from/ knotsBaromVisibWave heightAir tempDewpointWater temp
2017-Nov-28 22:08N 40°50' E 024°20'1 8.8
2017-Nov-28 22:00N 40°49' E 024°21'1 1.5
2017-Nov-28 21:30N 40°48' E 024°21'0 0.3
2017-Nov-28 21:00N 40°48' E 024°21'0 0.2
2017-Nov-28 20:30N 40°48' E 024°21'0 0.1
2017-Nov-28 20:00N 40°48' E 024°21'1 1.0
2017-Nov-28 19:30N 40°48' E 024°21'0 0.8
2017-Nov-28 19:00N 40°48' E 024°21'0 0.5
2017-Nov-28 18:30N 40°48' E 024°21'0 0.6
2017-Nov-28 18:00N 40°48' E 024°21'0 0.6
2017-Nov-28 17:30N 40°48' E 024°21'0 0.5
2017-Nov-28 17:00N 40°48' E 024°21'0 0.2
2017-Nov-28 16:30N 40°48' E 024°21'0 0.0
2017-Nov-28 16:00N 40°48' E 024°21'1 1.3
2017-Nov-28 15:00N 40°48' E 024°22'3 6.2
2017-Nov-28 14:30N 40°50' E 024°20'0 0.0
2017-Nov-26 22:13N 40°50' E 024°20'2 9.4
2017-Nov-26 22:01N 40°49' E 024°22'3 5.2
2017-Nov-26 21:30N 40°47' E 024°20'0 0.3
2017-Nov-26 21:00N 40°47' E 024°20'0 0.5
2017-Nov-26 20:31N 40°48' E 024°20'0 0.3
2017-Nov-26 20:00N 40°47' E 024°20'0 0.5
2017-Nov-26 19:31N 40°47' E 024°20'0 0.8
2017-Nov-26 19:00N 40°47' E 024°19'0 0.3
2017-Nov-26 18:30N 40°47' E 024°19'0 0.4
2017-Nov-26 18:01N 40°47' E 024°20'0 0.9
2017-Nov-26 17:31N 40°47' E 024°20'1 1.0
2017-Nov-26 17:00N 40°47' E 024°21'0 0.2
2017-Nov-26 16:31N 40°47' E 024°21'1 2.6
2017-Nov-26 16:01N 40°46' E 024°21'1 2.8
2017-Nov-26 15:31N 40°46' E 024°23'3 5.4
2017-Nov-26 15:00N 40°48' E 024°23'3 6.6
2017-Nov-26 14:31N 40°50' E 024°19'1 0.0
2017-Nov-24 21:32N 40°51' E 024°19'0 0.0
2017-Nov-24 21:30N 40°51' E 024°19'0 0.1
2017-Nov-24 21:00N 40°51' E 024°19'1 2.6
2017-Nov-24 20:30N 40°50' E 024°20'5 9.1
2017-Nov-24 20:00N 40°46' E 024°22'1 1.5
2017-Nov-24 19:30N 40°45' E 024°22'0 0.2
2017-Nov-24 19:00N 40°45' E 024°22'0 0.2
2017-Nov-24 18:30N 40°45' E 024°22'0 0.8
2017-Nov-24 18:00N 40°45' E 024°23'0 0.2
2017-Nov-24 17:30N 40°45' E 024°23'6 0.3
2017-Nov-23 21:09N 40°50' E 024°19'1 9.5
2017-Nov-23 21:00N 40°50' E 024°21'4 8.3
2017-Nov-23 20:30N 40°46' E 024°24'0 0.2
2017-Nov-23 20:00N 40°46' E 024°24'0 0.4
2017-Nov-23 19:30N 40°46' E 024°24'0 0.2
2017-Nov-23 19:00N 40°47' E 024°24'0 0.3
2017-Nov-23 18:30N 40°46' E 024°24'0 0.4
2017-Nov-23 18:00N 40°46' E 024°24'0 0.3
2017-Nov-23 17:30N 40°46' E 024°24'0 0.5
2017-Nov-23 17:00N 40°46' E 024°25'0 0.6
2017-Nov-23 16:30N 40°46' E 024°24'0 0.3
2017-Nov-23 16:00N 40°46' E 024°24'1 2.4
2017-Nov-23 15:30N 40°46' E 024°23'1 2.4
2017-Nov-23 15:00N 40°47' E 024°21'5 0.2
2017-Nov-22 19:05N 40°51' E 024°19'  
2017-Nov-19 22:23N 40°51' E 024°19'0 0.0
2017-Nov-19 22:00N 40°51' E 024°19'2 4.1
2017-Nov-19 21:31N 40°50' E 024°21'3 6.6
2017-Nov-19 21:01N 40°48' E 024°24'0 0.4
2017-Nov-19 20:30N 40°48' E 024°24'0 0.1
2017-Nov-19 20:01N 40°48' E 024°24'0 0.2
2017-Nov-19 19:30N 40°48' E 024°24'0 0.2
2017-Nov-19 19:01N 40°48' E 024°24'1 2.0
2017-Nov-19 18:31N 40°48' E 024°23'2 3.1
2017-Nov-19 18:01N 40°46' E 024°22'0 0.1
2017-Nov-19 17:31N 40°46' E 024°21'0 0.2
2017-Nov-19 17:00N 40°46' E 024°22'1 2.4
2017-Nov-19 16:31N 40°46' E 024°23'1 2.6
2017-Nov-19 16:01N 40°46' E 024°25'1 1.6
2017-Nov-19 15:31N 40°46' E 024°26'4 8.0
2017-Nov-19 15:01N 40°49' E 024°22'  

Dump ship's entire track history